Time;durP1;ratioP1;P1;durP2;ratioP2;P2;SDS_P1;SDS_P2;PMS_P1;PMS_P2;Temp;Humidity;BMP_temperature;BMP_pressure;BME280_temperature;BME280_humidity;BME280_pressure;Samples;Min_cycle;Max_cycle;Signal;HPM_P1;HPM_P2
2023/12/12 00:00:09;;;;;;;0.10;0.10;;;21.40;50.40;;;;;;5072102;28;20543;-45
2023/12/12 00:02:40;;;;;;;0.00;0.00;;;21.40;50.60;;;;;;5069982;28;20626;-46
2023/12/12 00:05:11;;;;;;;0.00;0.00;;;21.40;50.60;;;;;;5068605;28;20663;-50
2023/12/12 00:07:41;;;;;;;0.10;0.10;;;21.40;50.60;;;;;;5071858;28;20195;-46
2023/12/12 00:10:12;;;;;;;0.08;0.08;;;21.40;50.80;;;;;;5071340;28;20205;-48
2023/12/12 00:12:45;;;;;;;0.10;0.10;;;21.40;50.80;;;;;;5071813;28;20598;-49
2023/12/12 00:15:16;;;;;;;0.10;0.10;;;21.40;50.70;;;;;;5071730;28;20190;-52
2023/12/12 00:17:47;;;;;;;0.08;0.08;;;21.40;50.30;;;;;;5071504;28;20218;-49
2023/12/12 00:20:17;;;;;;;0.00;0.00;;;21.30;50.30;;;;;;5071805;28;20205;-48
2023/12/12 00:22:48;;;;;;;0.10;0.10;;;21.30;50.40;;;;;;5071513;28;20229;-48
2023/12/12 00:25:19;;;;;;;0.00;0.00;;;21.30;50.40;;;;;;5071280;28;20202;-46
2023/12/12 00:27:52;;;;;;;0.00;0.00;;;21.30;50.40;;;;;;5071980;28;20194;-48
2023/12/12 00:30:24;;;;;;;0.00;0.00;;;21.30;50.60;;;;;;5071563;28;20199;-43
2023/12/12 00:32:55;;;;;;;0.00;0.00;;;21.30;50.30;;;;;;5071313;28;20566;-51
2023/12/12 00:35:26;;;;;;;0.00;0.00;;;21.30;50.90;;;;;;5070695;28;20199;-46
2023/12/12 00:37:56;;;;;;;0.10;0.10;;;21.20;50.40;;;;;;5071467;28;20234;-46
2023/12/12 00:40:27;;;;;;;0.00;0.00;;;21.30;50.20;;;;;;5071258;28;20548;-45
2023/12/12 00:43:00;;;;;;;0.00;0.00;;;21.20;50.20;;;;;;5070464;28;20241;-49
2023/12/12 00:45:30;;;;;;;0.10;0.10;;;21.20;50.40;;;;;;5071252;28;20202;-47
2023/12/12 00:48:00;;;;;;;0.10;0.10;;;21.30;50.50;;;;;;5071005;28;20202;-49
2023/12/12 00:50:30;;;;;;;0.10;0.10;;;21.20;50.20;;;;;;5069345;28;20211;-51
2023/12/12 00:53:01;;;;;;;0.00;0.00;;;21.20;50.30;;;;;;5071225;28;20222;-49
2023/12/12 00:55:32;;;;;;;0.00;0.00;;;21.20;50.10;;;;;;5070916;28;20647;-48
2023/12/12 00:58:04;;;;;;;0.05;0.05;;;21.20;50.10;;;;;;5070937;28;20233;-50
2023/12/12 01:00:35;;;;;;;0.10;0.10;;;21.20;50.20;;;;;;5071232;28;20249;-48
2023/12/12 01:03:06;;;;;;;0.10;0.10;;;21.20;50.60;;;;;;5071074;28;20467;-49
2023/12/12 01:05:37;;;;;;;0.00;0.00;;;21.20;50.70;;;;;;5071094;28;20681;-50
2023/12/12 01:08:08;;;;;;;0.00;0.00;;;21.20;50.50;;;;;;5071222;28;20206;-54
2023/12/12 01:10:39;;;;;;;0.00;0.00;;;21.20;50.50;;;;;;5071388;28;20198;-49
2023/12/12 01:13:12;;;;;;;0.00;0.00;;;21.20;50.90;;;;;;5071147;28;20705;-48
2023/12/12 01:15:42;;;;;;;0.00;0.00;;;21.20;51.10;;;;;;5071149;28;20199;-51
2023/12/12 01:18:13;;;;;;;0.03;0.03;;;21.20;50.80;;;;;;5070602;28;20249;-54
2023/12/12 01:20:44;;;;;;;0.00;0.00;;;21.20;50.70;;;;;;5070171;28;20199;-50
2023/12/12 01:23:15;;;;;;;0.00;0.00;;;21.20;50.90;;;;;;5070871;28;20223;-49
2023/12/12 01:25:45;;;;;;;0.00;0.00;;;21.20;51.10;;;;;;5071235;28;20202;-47
2023/12/12 01:28:18;;;;;;;0.00;0.00;;;21.20;51.30;;;;;;5070805;28;20203;-50
2023/12/12 01:30:49;;;;;;;0.00;0.00;;;21.20;51.00;;;;;;5054357;28;20192;-51
2023/12/12 01:33:21;;;;;;;0.00;0.00;;;21.20;50.90;;;;;;5050783;28;20221;-51
2023/12/12 01:35:52;;;;;;;0.00;0.00;;;21.10;50.80;;;;;;5050477;28;20550;-45
2023/12/12 01:38:23;;;;;;;0.00;0.00;;;21.20;50.90;;;;;;5050810;28;20229;-45
2023/12/12 01:40:54;;;;;;;0.08;0.08;;;21.20;51.20;;;;;;5057946;28;20187;-45
2023/12/12 01:43:29;;;;;;;0.00;0.00;;;21.20;51.20;;;;;;5054520;28;20261;-46
2023/12/12 01:46:03;;;;;;;0.00;0.00;;;21.20;51.30;;;;;;5050666;28;20199;-48
2023/12/12 01:48:34;;;;;;;0.10;0.10;;;21.20;51.50;;;;;;5050620;28;20644;-51
2023/12/12 01:51:06;;;;;;;0.00;0.00;;;21.10;51.00;;;;;;5066372;28;20282;-46
2023/12/12 01:53:41;;;;;;;0.00;0.00;;;21.20;51.40;;;;;;5070910;28;20225;-53
2023/12/12 01:56:13;;;;;;;0.00;0.00;;;21.10;50.80;;;;;;5073652;28;20726;-48
2023/12/12 01:58:49;;;;;;;0.00;0.00;;;21.10;50.80;;;;;;5071886;28;20257;-47
2023/12/12 02:01:21;;;;;;;0.03;0.03;;;21.10;50.80;;;;;;5073696;28;20195;-47
2023/12/12 02:03:53;;;;;;;0.00;0.00;;;21.10;50.80;;;;;;5070735;28;20211;-55
2023/12/12 02:06:25;;;;;;;0.00;0.00;;;21.10;50.70;;;;;;5074086;28;20199;-50
2023/12/12 02:08:56;;;;;;;0.00;0.00;;;21.10;50.60;;;;;;5074073;28;20206;-48
2023/12/12 02:11:27;;;;;;;0.00;0.00;;;21.10;50.80;;;;;;5074135;28;20203;-51
2023/12/12 02:14:00;;;;;;;0.00;0.00;;;21.00;50.70;;;;;;5073438;28;20314;-49
2023/12/12 02:16:30;;;;;;;0.00;0.00;;;21.10;50.80;;;;;;5073682;28;20809;-49
2023/12/12 02:19:01;;;;;;;0.10;0.10;;;21.10;50.50;;;;;;5073822;28;20686;-47
2023/12/12 02:21:34;;;;;;;0.00;0.00;;;21.10;50.70;;;;;;5073865;28;20195;-52
2023/12/12 02:24:04;;;;;;;0.00;0.00;;;21.10;50.70;;;;;;5073733;28;20230;-50
2023/12/12 02:26:36;;;;;;;0.10;0.10;;;21.10;50.50;;;;;;5073887;28;20632;-49
2023/12/12 02:29:08;;;;;;;0.10;0.10;;;21.10;50.50;;;;;;5073850;28;20202;-48
2023/12/12 02:31:38;;;;;;;0.00;0.00;;;21.10;50.60;;;;;;5073624;28;20201;-45
2023/12/12 02:34:09;;;;;;;0.10;0.10;;;21.00;50.50;;;;;;5073028;28;20214;-49
2023/12/12 02:36:43;;;;;;;0.10;0.10;;;21.00;50.70;;;;;;5073354;28;20668;-52
2023/12/12 02:39:14;;;;;;;0.10;0.10;;;21.00;50.70;;;;;;5073982;28;20218;-46
2023/12/12 02:41:45;;;;;;;0.00;0.00;;;21.00;50.50;;;;;;5073667;28;20218;-49
2023/12/12 02:44:15;;;;;;;0.08;0.08;;;21.10;50.50;;;;;;5073255;28;20202;-47
2023/12/12 02:46:46;;;;;;;0.00;0.00;;;21.00;50.50;;;;;;5072932;28;20198;-48
2023/12/12 02:49:17;;;;;;;0.10;0.10;;;21.10;50.80;;;;;;5072837;28;20206;-51
2023/12/12 02:51:49;;;;;;;0.00;0.00;;;21.00;51.00;;;;;;5072978;28;20566;-50
2023/12/12 02:54:20;;;;;;;0.08;0.08;;;21.00;51.00;;;;;;5071150;28;20201;-48
2023/12/12 02:56:51;;;;;;;0.00;0.00;;;21.00;50.90;;;;;;5072796;28;20213;-48
2023/12/12 02:59:22;;;;;;;0.00;0.00;;;21.00;50.80;;;;;;5072883;28;20235;-49
2023/12/12 03:01:52;;;;;;;0.00;0.00;;;21.00;50.70;;;;;;5072639;28;20205;-53
2023/12/12 03:04:23;;;;;;;0.05;0.05;;;21.10;51.10;;;;;;5072694;28;20559;-49
2023/12/12 03:06:56;;;;;;;0.00;0.00;;;21.10;51.00;;;;;;5071882;28;20191;-48
2023/12/12 03:09:26;;;;;;;0.08;0.08;;;21.10;51.10;;;;;;5072371;28;20198;-54
2023/12/12 03:11:57;;;;;;;0.10;0.10;;;21.10;51.00;;;;;;5072685;28;20643;-49
2023/12/12 03:14:31;;;;;;;0.10;0.10;;;21.20;51.10;;;;;;5072662;28;20202;-50
2023/12/12 03:17:02;;;;;;;0.00;0.00;;;21.10;50.90;;;;;;5072745;28;20199;-48
2023/12/12 03:19:32;;;;;;;0.05;0.05;;;21.10;50.80;;;;;;5071959;28;20226;-53
2023/12/12 03:22:05;;;;;;;0.00;0.00;;;21.10;50.80;;;;;;5072233;28;20198;-48
2023/12/12 03:24:36;;;;;;;0.00;0.00;;;21.20;51.20;;;;;;5072257;28;20202;-49
2023/12/12 03:27:08;;;;;;;0.10;0.10;;;21.20;51.30;;;;;;5072360;28;20190;-50
2023/12/12 03:29:39;;;;;;;0.10;0.10;;;21.20;51.20;;;;;;5072789;28;20195;-48
2023/12/12 03:32:10;;;;;;;0.00;0.00;;;21.20;51.10;;;;;;5072475;28;20218;-49
2023/12/12 03:34:40;;;;;;;0.00;0.00;;;21.20;51.10;;;;;;5071675;28;20203;-49
2023/12/12 03:37:13;;;;;;;0.00;0.00;;;21.20;51.10;;;;;;5066939;28;20184;-52
2023/12/12 03:39:44;;;;;;;0.00;0.00;;;21.20;51.70;;;;;;5052774;28;20233;-53
2023/12/12 03:42:14;;;;;;;0.00;0.00;;;21.30;51.20;;;;;;5052227;28;20222;-47
2023/12/12 03:44:45;;;;;;;0.00;0.00;;;21.30;51.50;;;;;;5052251;28;20671;-48
2023/12/12 03:47:16;;;;;;;0.00;0.00;;;21.30;51.70;;;;;;5052272;28;20195;-51
2023/12/12 03:49:47;;;;;;;0.10;0.10;;;21.30;51.60;;;;;;5052028;28;20192;-48
2023/12/12 03:52:19;;;;;;;0.10;0.10;;;21.40;51.50;;;;;;5054589;28;20211;-49
2023/12/12 03:54:51;;;;;;;0.00;0.00;;;21.40;51.70;;;;;;5054478;28;20249;-51
2023/12/12 03:57:22;;;;;;;0.00;0.00;;;21.40;51.70;;;;;;5051997;28;20194;-46
2023/12/12 03:59:52;;;;;;;0.00;0.00;;;21.50;51.70;;;;;;5065914;28;20214;-48
2023/12/12 04:02:23;;;;;;;0.00;0.00;;;21.50;51.70;;;;;;5071961;28;20218;-49
2023/12/12 04:04:54;;;;;;;0.00;0.00;;;21.50;51.30;;;;;;5071827;28;20198;-49
2023/12/12 04:07:26;;;;;;;0.00;0.00;;;21.60;51.30;;;;;;5071842;28;20555;-45
2023/12/12 04:09:57;;;;;;;0.10;0.10;;;21.50;51.40;;;;;;5071615;28;20597;-46
2023/12/12 04:12:28;;;;;;;0.00;0.00;;;21.60;50.90;;;;;;5071566;28;20211;-49
2023/12/12 04:14:58;;;;;;;0.03;0.03;;;21.60;51.00;;;;;;5071839;28;20558;-49
2023/12/12 04:17:29;;;;;;;0.00;0.00;;;21.60;51.00;;;;;;5071489;28;20205;-53
2023/12/12 04:20:00;;;;;;;0.10;0.10;;;21.60;51.10;;;;;;5070878;28;20215;-49
2023/12/12 04:22:32;;;;;;;0.00;0.00;;;21.70;51.20;;;;;;5071432;28;20223;-48
2023/12/12 04:25:03;;;;;;;0.00;0.00;;;21.70;51.00;;;;;;5071749;28;20216;-48
2023/12/12 04:27:35;;;;;;;0.10;0.10;;;21.70;50.80;;;;;;5071605;28;20191;-52
2023/12/12 04:30:06;;;;;;;0.00;0.00;;;21.70;50.90;;;;;;5071609;28;20626;-49
2023/12/12 04:32:37;;;;;;;0.00;0.00;;;21.70;51.00;;;;;;5071630;28;20264;-48
2023/12/12 04:35:10;;;;;;;0.00;0.00;;;21.70;51.00;;;;;;5071294;28;20197;-49
2023/12/12 04:37:45;;;;;;;0.10;0.10;;;21.80;50.90;;;;;;5067851;28;20257;-52
2023/12/12 04:40:16;;;;;;;0.00;0.00;;;21.80;51.00;;;;;;5051046;28;20218;-48
2023/12/12 04:42:47;;;;;;;0.00;0.00;;;21.90;51.00;;;;;;5058192;28;20206;-52
2023/12/12 04:45:18;;;;;;;0.00;0.00;;;21.90;50.90;;;;;;5071137;28;20198;-47
2023/12/12 04:47:49;;;;;;;0.00;0.00;;;22.00;51.00;;;;;;5070614;28;20194;-47
2023/12/12 04:50:20;;;;;;;0.00;0.00;;;22.00;50.70;;;;;;5069484;28;20195;-49
2023/12/12 04:52:53;;;;;;;0.00;0.00;;;22.00;50.60;;;;;;5070721;28;20218;-51
2023/12/12 04:55:23;;;;;;;0.00;0.00;;;22.10;50.60;;;;;;5070906;28;20616;-51
2023/12/12 04:57:54;;;;;;;0.05;0.05;;;22.10;50.70;;;;;;5071581;28;20206;-49
2023/12/12 05:00:25;;;;;;;0.00;0.00;;;22.10;50.70;;;;;;5071228;28;20230;-50
2023/12/12 05:02:55;;;;;;;0.00;0.00;;;22.10;51.10;;;;;;5071119;28;20639;-53
2023/12/12 05:05:26;;;;;;;0.00;0.00;;;22.20;50.40;;;;;;5051488;28;20191;-51
2023/12/12 05:07:59;;;;;;;0.00;0.00;;;22.20;50.30;;;;;;5051022;28;20191;-52
2023/12/12 05:10:30;;;;;;;0.00;0.00;;;22.20;50.40;;;;;;5051005;28;20195;-45
2023/12/12 05:13:01;;;;;;;0.00;0.00;;;22.20;50.90;;;;;;5050904;28;20224;-48
2023/12/12 05:15:32;;;;;;;0.00;0.00;;;22.20;50.40;;;;;;5051004;28;20199;-52
2023/12/12 05:18:03;;;;;;;0.00;0.00;;;22.30;50.40;;;;;;5050882;28;20370;-53
2023/12/12 05:20:34;;;;;;;0.00;0.00;;;22.20;50.40;;;;;;5050336;28;20595;-50
2023/12/12 05:23:06;;;;;;;0.00;0.00;;;22.30;50.20;;;;;;5057325;28;20218;-48
2023/12/12 05:25:37;;;;;;;0.00;0.00;;;22.30;50.20;;;;;;5071038;28;20197;-49
2023/12/12 05:28:08;;;;;;;0.00;0.00;;;22.30;50.30;;;;;;5071004;28;20199;-55
2023/12/12 05:30:39;;;;;;;0.00;0.00;;;22.30;50.00;;;;;;5074647;28;20203;-51
2023/12/12 05:33:09;;;;;;;0.00;0.00;;;22.30;50.30;;;;;;5074090;28;20215;-49
2023/12/12 05:35:40;;;;;;;0.03;0.03;;;22.30;50.10;;;;;;5073031;28;20561;-48
2023/12/12 05:38:13;;;;;;;0.00;0.00;;;22.30;50.10;;;;;;5074347;28;20199;-53
2023/12/12 05:40:43;;;;;;;0.00;0.00;;;22.30;50.20;;;;;;5068340;28;20216;-56
2023/12/12 05:43:14;;;;;;;0.00;0.00;;;22.40;50.10;;;;;;5054211;28;20225;-52
2023/12/12 05:45:45;;;;;;;0.00;0.00;;;22.40;50.20;;;;;;5053887;28;20543;-54
2023/12/12 05:48:15;;;;;;;0.00;0.00;;;22.40;50.00;;;;;;5057083;28;20195;-56
2023/12/12 05:50:46;;;;;;;0.00;0.00;;;22.40;49.90;;;;;;5054220;28;20200;-52
2023/12/12 05:53:19;;;;;;;0.00;0.00;;;22.40;50.00;;;;;;5062094;28;20717;-53
2023/12/12 05:55:49;;;;;;;0.00;0.00;;;22.40;49.80;;;;;;5074018;28;20202;-49
2023/12/12 05:58:20;;;;;;;0.00;0.00;;;22.40;49.80;;;;;;5059853;28;20202;-54
2023/12/12 06:00:51;;;;;;;0.10;0.10;;;22.40;49.70;;;;;;5069700;28;20227;-50
2023/12/12 06:03:22;;;;;;;0.00;0.00;;;22.40;49.80;;;;;;5073249;28;20237;-52
2023/12/12 06:05:53;;;;;;;0.00;0.00;;;22.40;50.50;;;;;;5073975;28;20198;-48
2023/12/12 06:08:25;;;;;;;0.00;0.00;;;22.40;50.00;;;;;;5073959;28;20194;-49
2023/12/12 06:10:57;;;;;;;0.00;0.00;;;22.40;50.00;;;;;;5073937;28;20201;-54
2023/12/12 06:13:27;;;;;;;0.00;0.00;;;22.40;50.00;;;;;;5073489;28;20766;-51
2023/12/12 06:15:58;;;;;;;0.10;0.10;;;22.40;50.10;;;;;;5073576;28;20199;-51
2023/12/12 06:18:29;;;;;;;0.00;0.00;;;22.40;50.20;;;;;;5073638;28;20263;-54
2023/12/12 06:21:00;;;;;;;0.00;0.00;;;22.40;50.10;;;;;;5073735;28;20230;-53
2023/12/12 06:23:33;;;;;;;0.00;0.00;;;22.40;50.10;;;;;;5073608;28;20222;-49
2023/12/12 06:26:04;;;;;;;0.00;0.00;;;22.40;50.10;;;;;;5073422;28;20654;-45
2023/12/12 06:28:35;;;;;;;0.03;0.03;;;22.40;50.10;;;;;;5073810;28;20284;-49
2023/12/12 06:31:07;;;;;;;0.03;0.03;;;22.40;50.00;;;;;;5073837;28;20704;-46
2023/12/12 06:33:38;;;;;;;0.00;0.00;;;22.40;50.10;;;;;;5072702;28;20323;-51
2023/12/12 06:36:10;;;;;;;0.00;0.00;;;22.40;50.10;;;;;;5073184;28;20571;-45
2023/12/12 06:38:43;;;;;;;0.00;0.00;;;22.40;50.20;;;;;;5073824;28;20198;-45
2023/12/12 06:41:14;;;;;;;0.00;0.00;;;22.40;50.00;;;;;;5072218;28;20227;-51
2023/12/12 06:43:45;;;;;;;0.10;0.10;;;22.40;50.00;;;;;;5073379;28;20222;-48
2023/12/12 06:46:19;;;;;;;0.00;0.00;;;22.40;50.00;;;;;;5073459;28;20199;-46
2023/12/12 06:48:50;;;;;;;0.00;0.00;;;22.40;49.80;;;;;;5072917;28;20591;-48
2023/12/12 06:51:20;;;;;;;0.10;0.10;;;22.40;49.80;;;;;;5072941;28;20194;-51
2023/12/12 06:53:54;;;;;;;0.00;0.00;;;22.40;49.80;;;;;;5073319;28;20251;-47
2023/12/12 06:56:24;;;;;;;0.00;0.00;;;22.40;49.90;;;;;;5073298;28;20282;-49
2023/12/12 06:58:55;;;;;;;0.00;0.00;;;22.30;49.80;;;;;;5072978;28;20375;-49
2023/12/12 07:01:26;;;;;;;0.00;0.00;;;22.40;49.70;;;;;;5072936;28;20230;-52
2023/12/12 07:03:57;;;;;;;0.00;0.00;;;22.40;49.90;;;;;;5072557;28;20602;-49
2023/12/12 07:06:28;;;;;;;0.00;0.00;;;22.30;49.90;;;;;;5072863;28;20218;-48
2023/12/12 07:09:00;;;;;;;0.00;0.00;;;22.30;49.90;;;;;;5072781;28;20281;-49
2023/12/12 07:11:31;;;;;;;0.00;0.00;;;22.30;49.70;;;;;;5072477;28;20214;-46
2023/12/12 07:14:03;;;;;;;0.00;0.00;;;22.30;49.80;;;;;;5070996;28;20207;-46
2023/12/12 07:16:34;;;;;;;0.03;0.03;;;22.30;49.80;;;;;;5072458;28;20195;-48
2023/12/12 07:19:05;;;;;;;0.10;0.10;;;22.30;49.70;;;;;;5072377;28;20230;-50
2023/12/12 07:21:42;;;;;;;0.00;0.00;;;22.30;49.80;;;;;;5072207;28;20262;-50
2023/12/12 07:24:15;;;;;;;0.00;0.00;;;22.30;49.90;;;;;;5072693;28;20689;-52
2023/12/12 07:26:47;;;;;;;0.00;0.00;;;22.30;50.00;;;;;;5072475;28;20269;-51
2023/12/12 07:29:19;;;;;;;0.00;0.00;;;22.30;49.70;;;;;;5072639;28;20199;-47
2023/12/12 07:31:50;;;;;;;0.00;0.00;;;22.30;49.70;;;;;;5065216;28;20638;-44
2023/12/12 07:34:20;;;;;;;0.00;0.00;;;22.30;49.70;;;;;;5053475;28;20251;-49
2023/12/12 07:36:51;;;;;;;0.00;0.00;;;22.20;49.60;;;;;;5052105;28;20196;-52
2023/12/12 07:39:24;;;;;;;0.00;0.00;;;22.20;49.80;;;;;;5068358;28;20195;-49
2023/12/12 07:41:55;;;;;;;0.05;0.05;;;22.20;49.70;;;;;;5071760;28;20222;-55
2023/12/12 07:44:25;;;;;;;0.00;0.00;;;22.20;50.30;;;;;;5071401;28;20207;-51
2023/12/12 07:46:56;;;;;;;0.00;0.00;;;22.20;49.70;;;;;;5071286;28;20186;-50
2023/12/12 07:49:27;;;;;;;0.00;0.00;;;22.20;49.70;;;;;;5071518;28;20190;-52
2023/12/12 07:51:57;;;;;;;0.00;0.00;;;22.20;49.50;;;;;;5071103;28;20472;-45
2023/12/12 07:54:30;;;;;;;0.08;0.08;;;22.20;49.70;;;;;;5070391;28;20242;-48
2023/12/12 07:57:01;;;;;;;0.10;0.10;;;22.20;49.80;;;;;;5056478;28;20198;-46
2023/12/12 07:59:31;;;;;;;0.00;0.00;;;22.10;49.80;;;;;;5050566;28;20199;-56
2023/12/12 08:02:02;;;;;;;0.10;0.10;;;22.10;49.90;;;;;;5067866;28;20191;-48
2023/12/12 08:04:33;;;;;;;0.00;0.00;;;22.10;50.00;;;;;;5070386;28;20205;-52
2023/12/12 08:07:04;;;;;;;0.10;0.10;;;22.10;49.90;;;;;;5068141;28;20651;-55
2023/12/12 08:09:36;;;;;;;0.00;0.00;;;22.10;50.00;;;;;;5061897;28;20195;-55
2023/12/12 08:12:07;;;;;;;0.00;0.00;;;22.10;50.00;;;;;;5050175;28;20203;-52
2023/12/12 08:14:38;;;;;;;0.10;0.10;;;22.10;49.90;;;;;;5056639;28;20198;-49
2023/12/12 08:17:09;;;;;;;0.00;0.00;;;22.10;49.80;;;;;;5070795;28;20190;-47
2023/12/12 08:19:40;;;;;;;0.00;0.00;;;22.10;49.80;;;;;;5071535;28;20253;-53
2023/12/12 08:22:12;;;;;;;0.00;0.00;;;22.10;49.60;;;;;;5070163;28;20214;-48
2023/12/12 08:24:48;;;;;;;0.00;0.00;;;22.10;49.70;;;;;;5071057;28;20873;-54
2023/12/12 08:27:19;;;;;;;0.00;0.00;;;22.10;49.70;;;;;;5070692;28;20195;-52
2023/12/12 08:29:51;;;;;;;0.00;0.00;;;22.10;49.80;;;;;;5071200;28;20248;-47
2023/12/12 08:32:21;;;;;;;0.00;0.00;;;22.00;49.70;;;;;;5070349;28;20248;-52
2023/12/12 08:34:52;;;;;;;0.00;0.00;;;22.00;49.80;;;;;;5070440;28;20197;-49
2023/12/12 08:37:23;;;;;;;0.10;0.10;;;22.00;49.90;;;;;;5071304;28;20202;-49
2023/12/12 08:39:55;;;;;;;0.00;0.00;;;22.00;50.10;;;;;;5070221;28;20557;-55
2023/12/12 08:42:26;;;;;;;0.00;0.00;;;22.00;50.00;;;;;;5069787;28;20213;-48
2023/12/12 08:44:57;;;;;;;0.00;0.00;;;22.00;50.00;;;;;;5069774;28;20199;-46
2023/12/12 08:47:27;;;;;;;0.00;0.00;;;21.90;50.20;;;;;;5070549;28;20206;-46
2023/12/12 08:49:59;;;;;;;0.00;0.00;;;21.90;50.30;;;;;;5070747;28;20195;-47
2023/12/12 08:52:31;;;;;;;0.00;0.00;;;21.90;50.30;;;;;;5070556;28;20610;-51
2023/12/12 08:55:05;;;;;;;0.00;0.00;;;21.90;50.50;;;;;;5069583;28;20286;-51
2023/12/12 08:57:36;;;;;;;0.00;0.00;;;21.80;50.60;;;;;;5056672;28;20200;-49
2023/12/12 09:00:13;;;;;;;0.00;0.00;;;21.80;50.60;;;;;;5049417;28;20219;-49
2023/12/12 09:02:44;;;;;;;0.00;0.00;;;21.80;50.80;;;;;;5050152;28;20215;-45
2023/12/12 09:05:15;;;;;;;0.10;0.10;;;21.80;51.00;;;;;;5062039;28;20184;-48
2023/12/12 09:07:45;;;;;;;0.10;0.10;;;21.90;50.90;;;;;;5063755;28;20257;-46
2023/12/12 09:10:18;;;;;;;0.00;0.00;;;21.80;50.60;;;;;;5064756;28;20557;-46
2023/12/12 09:12:49;;;;;;;0.00;0.00;;;21.80;50.80;;;;;;5064053;28;20237;-52
2023/12/12 09:15:19;;;;;;;0.00;0.00;;;21.80;50.70;;;;;;5064672;28;20183;-51
2023/12/12 09:17:50;;;;;;;0.00;0.00;;;21.80;50.70;;;;;;5063211;28;20188;-50
2023/12/12 09:20:21;;;;;;;0.05;0.05;;;21.80;51.20;;;;;;5063599;28;20581;-45
2023/12/12 09:22:51;;;;;;;0.00;0.00;;;21.80;51.20;;;;;;5065533;28;20203;-53
2023/12/12 09:25:25;;;;;;;0.00;0.00;;;21.70;51.40;;;;;;5065087;28;20662;-52
2023/12/12 09:27:56;;;;;;;0.00;0.00;;;21.80;51.60;;;;;;5064462;28;20192;-51
2023/12/12 09:30:27;;;;;;;0.00;0.00;;;21.70;51.40;;;;;;5063244;28;20192;-49
2023/12/12 09:32:58;;;;;;;0.08;0.08;;;21.70;51.50;;;;;;5064204;28;20217;-47
2023/12/12 09:35:28;;;;;;;0.00;0.00;;;21.60;51.60;;;;;;5065426;28;20187;-54
2023/12/12 09:38:05;;;;;;;0.00;0.00;;;21.70;52.10;;;;;;5073237;28;20682;-45
2023/12/12 09:40:40;;;;;;;0.00;0.00;;;21.80;51.60;;;;;;5074697;28;20226;-45
2023/12/12 09:43:14;;;;;;;0.00;0.00;;;21.60;51.10;;;;;;5074610;28;20285;-49
2023/12/12 09:45:48;;;;;;;0.00;0.00;;;21.60;50.90;;;;;;5074681;28;20195;-50
2023/12/12 09:48:19;;;;;;;0.00;0.00;;;21.60;51.10;;;;;;5061313;28;20198;-54
2023/12/12 09:50:51;;;;;;;0.00;0.00;;;21.60;51.00;;;;;;5054012;28;20195;-53
2023/12/12 09:53:22;;;;;;;0.00;0.00;;;21.60;51.00;;;;;;5062842;28;20227;-56
2023/12/12 09:55:55;;;;;;;0.00;0.00;;;21.60;51.00;;;;;;5074423;28;20622;-55
2023/12/12 09:58:26;;;;;;;0.00;0.00;;;21.60;51.10;;;;;;5059437;28;20195;-53
2023/12/12 10:00:57;;;;;;;0.00;0.00;;;21.50;51.30;;;;;;5054194;28;20230;-55
2023/12/12 10:03:29;;;;;;;0.00;0.00;;;21.50;51.20;;;;;;5070438;28;20586;-47
2023/12/12 10:06:01;;;;;;;0.00;0.00;;;21.50;51.20;;;;;;5074249;28;20665;-48
2023/12/12 10:08:32;;;;;;;0.00;0.00;;;21.50;51.20;;;;;;5074347;28;20580;-52
2023/12/12 10:11:05;;;;;;;0.00;0.00;;;21.50;51.20;;;;;;5074182;28;20203;-47
2023/12/12 10:13:50;;;;;;;0.10;0.10;;;21.50;51.50;;;;;;5074064;28;20215;-49
2023/12/12 10:16:21;;;;;;;0.00;0.00;;;21.40;51.80;;;;;;5073765;28;20217;-46
2023/12/12 10:18:52;;;;;;;0.00;0.00;;;21.50;51.20;;;;;;5073861;28;20391;-51
2023/12/12 10:21:26;;;;;;;0.00;0.00;;;21.50;51.20;;;;;;5073785;28;20226;-51
2023/12/12 10:23:58;;;;;;;0.00;0.00;;;21.50;51.10;;;;;;5073786;28;20288;-56
2023/12/12 10:26:31;;;;;;;0.00;0.00;;;21.40;50.90;;;;;;5073701;28;20289;-52
2023/12/12 10:29:03;;;;;;;0.00;0.00;;;21.40;50.80;;;;;;5073490;28;20195;-54
2023/12/12 10:31:33;;;;;;;0.00;0.00;;;21.40;50.80;;;;;;5073849;28;20194;-50
2023/12/12 10:34:04;;;;;;;0.00;0.00;;;21.40;50.80;;;;;;5073919;28;20693;-50
2023/12/12 10:36:35;;;;;;;0.00;0.00;;;21.40;50.90;;;;;;5073513;28;20195;-50
2023/12/12 10:39:14;;;;;;;0.00;0.00;;;21.40;50.80;;;;;;5073567;28;20306;-46
2023/12/12 10:41:55;;;;;;;0.00;0.00;;;21.30;50.60;;;;;;5073243;28;20222;-48
2023/12/12 10:44:32;;;;;;;0.00;0.00;;;21.30;50.50;;;;;;5073704;28;20248;-51
2023/12/12 10:47:03;;;;;;;0.00;0.00;;;21.30;50.60;;;;;;5073570;28;20281;-44
2023/12/12 10:49:36;;;;;;;0.00;0.00;;;21.30;50.60;;;;;;5073388;28;20202;-47
2023/12/12 10:52:08;;;;;;;0.00;0.00;;;21.30;50.60;;;;;;5073151;28;20248;-48
2023/12/12 10:54:39;;;;;;;0.00;0.00;;;21.30;50.40;;;;;;5073344;28;20232;-53
2023/12/12 10:57:13;;;;;;;0.10;0.10;;;21.30;50.50;;;;;;5073273;28;20282;-48
2023/12/12 10:59:44;;;;;;;0.00;0.00;;;21.20;50.20;;;;;;5073231;28;20195;-47
2023/12/12 11:02:17;;;;;;;0.00;0.00;;;21.20;50.20;;;;;;5073129;28;20226;-50
2023/12/12 11:04:48;;;;;;;0.00;0.00;;;21.20;50.30;;;;;;5073037;28;20722;-51
2023/12/12 11:07:19;;;;;;;0.00;0.00;;;21.20;50.30;;;;;;5072802;28;20202;-46
2023/12/12 11:09:49;;;;;;;0.08;0.08;;;21.20;50.20;;;;;;5073141;28;20195;-51
2023/12/12 11:12:23;;;;;;;0.00;0.00;;;21.20;50.30;;;;;;5072895;28;20674;-46
2023/12/12 11:14:54;;;;;;;0.00;0.00;;;21.20;50.30;;;;;;5071265;28;20558;-46
2023/12/12 11:17:25;;;;;;;0.00;0.00;;;21.10;50.20;;;;;;5072835;28;20198;-44
2023/12/12 11:19:56;;;;;;;0.03;0.03;;;21.10;50.10;;;;;;5072876;28;20195;-44
2023/12/12 11:22:42;;;;;;;0.00;0.00;;;21.10;50.10;;;;;;5072371;28;20238;-45
2023/12/12 11:25:19;;;;;;;0.00;0.00;;;21.10;50.30;;;;;;5072342;28;20579;-47
2023/12/12 11:27:53;;;;;;;0.00;0.00;;;21.10;50.20;;;;;;5071712;28;20282;-48
2023/12/12 11:30:31;;;;;;;0.00;0.00;;;21.10;50.20;;;;;;5072671;28;20647;-44
2023/12/12 11:33:02;;;;;;;0.00;0.00;;;21.10;50.20;;;;;;5072405;28;20591;-46
2023/12/12 11:35:34;;;;;;;0.00;0.00;;;21.10;50.10;;;;;;5071866;28;20535;-46
2023/12/12 11:38:27;;;;;;;0.00;0.00;;;21.10;50.10;;;;;;5071923;28;20625;-44
2023/12/12 11:41:12;;;;;;;0.00;0.00;;;21.00;50.00;;;;;;5072041;28;20277;-45
2023/12/12 11:43:45;;;;;;;0.00;0.00;;;21.00;50.00;;;;;;5072213;28;20611;-48
2023/12/12 11:46:23;;;;;;;0.00;0.00;;;21.00;49.80;;;;;;5072482;28;20666;-46
2023/12/12 11:48:54;;;;;;;0.10;0.10;;;21.00;49.80;;;;;;5072236;28;20558;-47
2023/12/12 11:51:46;;;;;;;0.00;0.00;;;20.90;49.80;;;;;;5072214;28;20202;-46
2023/12/12 11:54:23;;;;;;;0.10;0.10;;;20.90;49.80;;;;;;5068563;28;20199;-49
2023/12/12 11:56:58;;;;;;;0.00;0.00;;;20.90;49.90;;;;;;5052254;28;20199;-46
2023/12/12 11:59:32;;;;;;;0.00;0.00;;;20.90;49.70;;;;;;5052364;28;20191;-46
2023/12/12 12:02:03;;;;;;;0.00;0.00;;;20.90;50.00;;;;;;5058854;28;20223;-48
2023/12/12 12:04:34;;;;;;;0.00;0.00;;;20.90;50.50;;;;;;5054385;28;20191;-43
2023/12/12 12:07:05;;;;;;;0.03;0.03;;;20.90;49.90;;;;;;5057944;28;20206;-50
2023/12/12 12:09:36;;;;;;;0.08;0.08;;;20.80;50.00;;;;;;5072282;28;20205;-46
2023/12/12 12:12:12;;;;;;;0.00;0.00;;;20.80;49.90;;;;;;5071873;28;20195;-51
2023/12/12 12:14:44;;;;;;;0.00;0.00;;;20.80;50.10;;;;;;5071614;28;20201;-49
2023/12/12 12:17:15;;;;;;;0.00;0.00;;;20.80;50.00;;;;;;5071626;28;20490;-47
2023/12/12 12:19:46;;;;;;;0.00;0.00;;;20.80;50.10;;;;;;5071651;28;20201;-47
2023/12/12 12:22:16;;;;;;;0.00;0.00;;;20.80;50.10;;;;;;5071300;28;20226;-50
2023/12/12 12:24:47;;;;;;;0.00;0.00;;;20.80;50.00;;;;;;5051344;28;20667;-45
2023/12/12 12:27:18;;;;;;;0.00;0.00;;;20.80;50.10;;;;;;5051365;28;20575;-47
2023/12/12 12:30:04;;;;;;;0.00;0.00;;;20.80;50.20;;;;;;5051668;28;20192;-49
2023/12/12 12:32:34;;;;;;;0.00;0.00;;;20.70;50.30;;;;;;5052090;28;20415;-53
2023/12/12 12:35:12;;;;;;;0.10;0.10;;;20.70;50.30;;;;;;5059551;28;20191;-47
2023/12/12 12:37:43;;;;;;;0.10;0.10;;;20.70;50.20;;;;;;5061435;28;20194;-45
2023/12/12 12:40:32;;;;;;;0.00;0.00;;;20.70;50.40;;;;;;5060977;28;20223;-47
2023/12/12 12:43:04;;;;;;;0.00;0.00;;;20.70;50.50;;;;;;5061572;28;20230;-47
2023/12/12 12:45:37;;;;;;;0.00;0.00;;;20.70;50.30;;;;;;5060265;28;20234;-49
2023/12/12 12:48:08;;;;;;;0.10;0.10;;;20.60;50.30;;;;;;5059924;28;20602;-51
2023/12/12 12:50:40;;;;;;;0.10;0.10;;;20.60;50.60;;;;;;5060825;28;20197;-53
2023/12/12 12:53:12;;;;;;;0.00;0.00;;;20.60;50.60;;;;;;5061023;28;20219;-49
2023/12/12 12:55:43;;;;;;;0.00;0.00;;;20.60;51.30;;;;;;5060289;28;20274;-52
2023/12/12 12:58:15;;;;;;;0.10;0.10;;;20.60;50.60;;;;;;5060083;28;20245;-50
2023/12/12 13:00:48;;;;;;;0.00;0.00;;;20.50;50.50;;;;;;5060185;28;20197;-48
2023/12/12 13:03:19;;;;;;;0.08;0.08;;;20.60;50.70;;;;;;5051128;28;20234;-46
2023/12/12 13:05:50;;;;;;;0.10;0.10;;;20.50;50.90;;;;;;5051255;28;20301;-46
2023/12/12 13:08:22;;;;;;;0.03;0.03;;;20.60;50.70;;;;;;5051195;28;20191;-47
2023/12/12 13:10:53;;;;;;;0.00;0.00;;;20.50;50.70;;;;;;5050908;28;20188;-47